aviador You're here:

TAPA Decoded Metar

ANTIGUA in LEEWARD ISLANDS
Report Time2018-07-21 08:00:00
UTC Time2018-07-21 08:11:49
Flight Rules vfr VFR
Wind090° at 12 kt
W.Decomp.*RWY 07: 10.3 kt HW 6.2 kt RCW
W.Rank090° ranks 1
Current wind is above 090° avg. (9.8)
Visibility9999 m
Phenomena:N/A
Clouds:Few 018 Hf
Expected CloudBase > 2,000 ft AGL from Temp-Dew spread
CeilingNone
Temp27°C (ISA +12)
Dew Point22°C (74% RH)
Heat Index29.2°C
QNH1015 hPa
Density Alt1,719 ft
Elevation46 ft
Report Wrong Elevation
Raw Report
TAPA 210800Z 09012KT 9999 FEW018 27/22 Q1015 NOSIG=

Extra information for TAPA:More info

Metar Taf Metar & Taf Last 4 Metars F.Rules Stats Wind Profile Meteogram Temp Stats Airport Information Weather charts Add Link Nearby VenuesMetar ALERT Operation Metar Decoded Social comments